Iliamna, Alaska
Current Conditions -  °F | °C
As of 2:53 AM on Thursday 29 Jan 2015 (Local Time) from PAIL Reporting Station
Clear Clear  
Wind Chill: -16°   Ceiling: Unl
Heat Index:   Visibility: 10mi
Dew Point: -3°   Wind: 17mph
Humidity: 73%   Direction: 360°N
Pressure: 30.03"   Gusts: 26mph
Location:  59.76°N, 154.83°W
Report Text: PAIL 291153Z AUTO 36015G23KT 10SM CLR M16/M19 A3003 RMK AO2 SLP173 T11561194 11117 21156 52006 TSNO
Loading
Personal Weather Stations






























Interactive Weather Map New forecast layout! Learn more

10-Day Weather Forecast

Advertisements
Track Severe Weather on mobile